Time;durP1;ratioP1;P1;durP2;ratioP2;P2;SDS_P1;SDS_P2;PMS_P1;PMS_P2;Temp;Humidity;BMP_temperature;BMP_pressure;BME280_temperature;BME280_humidity;BME280_pressure;Samples;Min_cycle;Max_cycle;Signal;HPM_P1;HPM_P2
2023/04/10 00:02:17;;;;;;;21.27;15.07;;;6.50;99.90;;;;;;4664449;28;10000160;-68
2023/04/10 00:04:43;;;;;;;22.60;14.75;;;6.50;99.90;;;;;;5023602;28;20037;-68
2023/04/10 00:07:09;;;;;;;22.83;15.68;;;6.40;99.90;;;;;;5012974;28;20053;-68
2023/04/10 00:09:35;;;;;;;21.98;14.90;;;6.40;99.90;;;;;;5014641;28;20041;-67
2023/04/10 00:12:00;;;;;;;22.27;15.57;;;6.40;99.90;;;;;;5013566;28;20029;-68
2023/04/10 00:14:26;;;;;;;24.52;16.65;;;6.30;99.90;;;;;;5028183;28;20025;-67
2023/04/10 00:16:51;;;;;;;23.30;16.33;;;6.30;99.90;;;;;;5030731;28;20032;-68
2023/04/10 00:19:17;;;;;;;22.88;15.68;;;6.20;99.90;;;;;;5020668;28;20026;-68
2023/04/10 00:21:43;;;;;;;23.58;16.10;;;6.20;99.90;;;;;;5019993;28;20049;-68
2023/04/10 00:24:09;;;;;;;21.20;14.90;;;6.20;99.90;;;;;;5015662;28;20049;-67
2023/04/10 00:26:35;;;;;;;24.10;15.95;;;6.20;99.90;;;;;;5021456;28;20053;-68
2023/04/10 00:29:01;;;;;;;24.58;16.10;;;6.10;99.90;;;;;;5020241;28;20037;-68
2023/04/10 00:31:27;;;;;;;21.23;15.65;;;6.10;99.90;;;;;;5023756;28;20026;-68
2023/04/10 00:33:52;;;;;;;24.02;15.95;;;6.10;99.90;;;;;;5017946;28;20723;-68
2023/04/10 00:36:19;;;;;;;23.40;15.88;;;6.10;99.90;;;;;;5021246;28;20587;-68
2023/04/10 00:38:45;;;;;;;23.10;15.55;;;6.10;99.90;;;;;;5020894;28;20401;-68
2023/04/10 00:41:10;;;;;;;22.33;14.80;;;6.10;99.90;;;;;;5016875;28;20030;-68
2023/04/10 00:43:36;;;;;;;22.50;15.50;;;6.10;99.90;;;;;;5022513;28;20033;-68
2023/04/10 00:46:03;;;;;;;23.17;15.80;;;6.00;99.90;;;;;;5021964;28;20371;-68
2023/04/10 00:48:29;;;;;;;22.27;15.52;;;6.00;99.90;;;;;;5019535;28;20026;-68
2023/04/10 00:50:54;;;;;;;23.95;15.90;;;6.00;99.90;;;;;;5011110;28;20663;-68
2023/04/10 00:53:20;;;;;;;21.48;15.23;;;6.00;99.90;;;;;;5013429;28;20173;-68
2023/04/10 00:55:48;;;;;;;21.40;14.77;;;5.90;99.90;;;;;;5027556;28;20449;-68
2023/04/10 00:58:14;;;;;;;23.48;15.68;;;5.90;99.90;;;;;;5021404;28;20041;-69
2023/04/10 01:00:40;;;;;;;23.30;16.48;;;5.90;99.90;;;;;;5018951;28;20022;-69
2023/04/10 01:03:07;;;;;;;24.00;16.20;;;5.90;99.90;;;;;;5012562;28;20478;-68
2023/04/10 01:05:45;;;;;;;24.42;16.15;;;5.90;99.90;;;;;;5023186;28;20045;-68
2023/04/10 01:08:49;;;;;;;23.98;16.13;;;5.90;99.90;;;;;;5014895;28;20052;-69
2023/04/10 01:11:23;;;;;;;25.70;16.15;;;5.80;99.90;;;;;;5023522;28;20032;-69
2023/04/10 01:14:04;;;;;;;24.10;15.95;;;5.80;99.90;;;;;;5016549;28;20033;-68
2023/04/10 01:16:35;;;;;;;21.88;14.90;;;5.80;99.90;;;;;;5021227;28;20028;-69
2023/04/10 01:19:31;;;;;;;21.75;15.68;;;5.80;99.90;;;;;;5019114;28;20022;-68
2023/04/10 01:22:00;;;;;;;23.95;15.68;;;5.80;99.90;;;;;;5010210;28;20809;-68
2023/04/10 01:25:05;;;;;;;26.00;16.30;;;5.70;99.90;;;;;;5016340;28;20091;-68
2023/04/10 01:28:00;;;;;;;24.55;16.33;;;5.70;99.90;;;;;;4998565;28;20056;-68
2023/04/10 01:30:26;;;;;;;22.73;15.85;;;5.60;99.90;;;;;;5021913;28;20044;-68
2023/04/10 01:32:57;;;;;;;22.45;15.65;;;5.60;99.90;;;;;;5015379;28;20097;-68
2023/04/10 01:35:24;;;;;;;21.27;15.30;;;5.60;99.90;;;;;;5015876;28;20038;-68
2023/04/10 01:37:52;;;;;;;23.23;15.50;;;5.50;99.90;;;;;;5018959;28;20501;-69
2023/04/10 01:40:19;;;;;;;21.95;15.50;;;5.50;99.90;;;;;;5018565;28;20042;-68
2023/04/10 01:42:52;;;;;;;23.10;15.23;;;5.50;99.90;;;;;;5012545;28;20498;-68
2023/04/10 01:45:25;;;;;;;23.75;15.88;;;5.40;99.90;;;;;;5014015;28;20076;-68
2023/04/10 01:47:51;;;;;;;22.88;15.57;;;5.40;99.90;;;;;;5017268;28;20502;-68
2023/04/10 01:50:18;;;;;;;23.98;15.60;;;5.30;99.90;;;;;;5016553;28;20029;-68
2023/04/10 01:52:46;;;;;;;24.10;15.60;;;5.30;99.90;;;;;;5015211;28;20122;-68
2023/04/10 01:55:12;;;;;;;23.88;16.10;;;5.30;99.90;;;;;;5007804;28;20048;-68
2023/04/10 01:57:38;;;;;;;23.90;16.15;;;5.20;99.90;;;;;;5023078;28;20029;-68
2023/04/10 02:00:04;;;;;;;27.60;16.55;;;5.20;99.90;;;;;;5008784;28;20026;-68
2023/04/10 02:02:33;;;;;;;23.27;15.88;;;5.20;99.90;;;;;;5011981;28;20037;-68
2023/04/10 02:04:58;;;;;;;22.67;15.80;;;5.20;99.90;;;;;;5019051;28;20036;-68
2023/04/10 02:07:35;;;;;;;25.77;16.45;;;5.10;99.90;;;;;;5011460;28;20025;-68
2023/04/10 02:10:20;;;;;;;23.98;16.08;;;5.10;99.90;;;;;;5007272;28;20033;-68
2023/04/10 02:12:52;;;;;;;22.98;15.60;;;5.10;99.90;;;;;;5017271;28;20032;-68
2023/04/10 02:15:21;;;;;;;22.17;15.23;;;5.10;99.90;;;;;;5019208;28;20030;-68
2023/04/10 02:17:48;;;;;;;23.15;15.10;;;5.10;99.90;;;;;;5010360;28;20037;-68
2023/04/10 02:20:15;;;;;;;24.27;16.10;;;5.00;99.90;;;;;;5012448;28;20087;-68
2023/04/10 02:22:45;;;;;;;23.60;15.70;;;5.00;99.90;;;;;;5018049;28;20038;-69
2023/04/10 02:25:11;;;;;;;24.95;16.27;;;5.10;99.90;;;;;;5017152;28;20127;-69
2023/04/10 02:27:37;;;;;;;22.27;15.38;;;5.20;99.90;;;;;;5010797;28;21598;-68
2023/04/10 02:30:03;;;;;;;23.63;15.93;;;5.20;99.90;;;;;;5011816;28;20679;-69
2023/04/10 02:32:30;;;;;;;24.20;16.55;;;5.10;99.90;;;;;;5014098;28;20037;-69
2023/04/10 02:34:56;;;;;;;23.05;16.75;;;5.10;99.90;;;;;;5021280;28;20026;-68
2023/04/10 02:37:22;;;;;;;26.33;17.23;;;5.10;99.90;;;;;;5019872;28;20025;-68
2023/04/10 02:39:47;;;;;;;25.85;17.25;;;5.10;99.90;;;;;;5018020;28;20057;-68
2023/04/10 02:42:13;;;;;;;25.58;16.95;;;5.00;99.90;;;;;;5009687;28;20086;-68
2023/04/10 02:44:39;;;;;;;24.40;16.45;;;5.00;99.90;;;;;;5013371;28;20029;-68
2023/04/10 02:47:05;;;;;;;23.35;16.05;;;5.00;99.90;;;;;;5015254;28;20034;-68
2023/04/10 02:49:34;;;;;;;23.63;15.05;;;4.90;99.90;;;;;;5009456;28;20545;-68
2023/04/10 02:52:00;;;;;;;24.63;16.50;;;4.90;99.90;;;;;;5015400;28;20443;-68
2023/04/10 02:54:26;;;;;;;23.55;15.75;;;4.80;99.90;;;;;;5022180;28;20112;-68
2023/04/10 02:56:51;;;;;;;21.23;14.95;;;4.80;99.90;;;;;;5021000;28;20124;-68
2023/04/10 02:59:17;;;;;;;23.17;15.57;;;4.80;99.90;;;;;;5012477;28;20069;-68
2023/04/10 03:01:45;;;;;;;24.27;16.05;;;4.80;99.90;;;;;;5010913;28;20021;-68
2023/04/10 03:04:11;;;;;;;25.20;16.67;;;4.70;99.90;;;;;;5016608;28;20030;-68
2023/04/10 03:06:37;;;;;;;24.13;16.67;;;4.70;99.90;;;;;;5015225;28;20040;-68
2023/04/10 03:09:02;;;;;;;24.55;15.90;;;4.80;99.90;;;;;;5008407;28;20029;-68
2023/04/10 03:11:29;;;;;;;25.30;15.93;;;4.80;99.90;;;;;;5017482;28;20061;-68
2023/04/10 03:13:57;;;;;;;25.50;16.55;;;4.80;99.90;;;;;;5008782;28;20092;-68
2023/04/10 03:16:22;;;;;;;25.02;16.85;;;4.80;99.90;;;;;;5014567;28;20030;-68
2023/04/10 03:18:48;;;;;;;23.80;15.45;;;4.80;99.90;;;;;;5008883;28;20022;-68
2023/04/10 03:21:14;;;;;;;25.33;16.52;;;4.80;99.90;;;;;;5019634;28;20091;-68
2023/04/10 03:23:40;;;;;;;23.77;15.93;;;4.80;99.90;;;;;;5011924;28;20072;-68
2023/04/10 03:26:06;;;;;;;22.88;15.68;;;4.70;99.90;;;;;;5007338;28;20057;-68
2023/04/10 03:28:32;;;;;;;23.73;16.00;;;4.70;99.90;;;;;;5010143;28;20037;-68
2023/04/10 03:30:58;;;;;;;23.60;16.63;;;4.70;99.90;;;;;;5011374;28;20088;-68
2023/04/10 03:33:23;;;;;;;21.50;15.00;;;4.70;99.90;;;;;;5004891;28;20026;-68
2023/04/10 03:35:49;;;;;;;21.73;15.05;;;4.60;99.90;;;;;;5015161;28;20487;-68
2023/04/10 03:38:15;;;;;;;22.83;15.55;;;4.60;99.90;;;;;;5009774;28;20033;-68
2023/04/10 03:40:40;;;;;;;24.23;15.48;;;4.60;99.90;;;;;;5012821;28;20107;-69
2023/04/10 03:43:06;;;;;;;26.02;16.60;;;4.50;99.90;;;;;;5017869;28;20112;-68
2023/04/10 03:45:32;;;;;;;23.42;15.40;;;4.50;99.90;;;;;;5021005;28;20120;-68
2023/04/10 03:47:58;;;;;;;23.15;15.90;;;4.50;99.90;;;;;;5023749;28;20061;-68
2023/04/10 03:50:23;;;;;;;22.50;15.38;;;4.40;99.90;;;;;;5013620;28;20030;-68
2023/04/10 03:52:50;;;;;;;20.67;14.18;;;4.40;99.90;;;;;;5009279;28;20076;-68
2023/04/10 03:55:19;;;;;;;23.80;15.52;;;4.50;99.90;;;;;;5020622;28;20110;-68
2023/04/10 03:57:46;;;;;;;22.33;14.82;;;4.40;99.90;;;;;;5020769;28;20026;-68
2023/04/10 04:00:13;;;;;;;22.42;14.80;;;4.40;99.90;;;;;;5011695;28;20520;-68
2023/04/10 04:02:39;;;;;;;21.23;14.68;;;4.40;99.90;;;;;;5009350;28;20399;-68
2023/04/10 04:05:04;;;;;;;22.65;14.88;;;4.30;99.90;;;;;;5017846;28;20033;-68
2023/04/10 04:07:30;;;;;;;23.40;15.57;;;4.20;99.90;;;;;;5016523;28;20030;-68
2023/04/10 04:09:56;;;;;;;22.02;14.63;;;4.20;99.90;;;;;;5012765;28;20065;-68
2023/04/10 04:12:21;;;;;;;21.48;13.73;;;4.20;99.90;;;;;;5012396;28;20482;-68
2023/04/10 04:14:47;;;;;;;23.52;14.52;;;4.10;99.90;;;;;;5022191;28;20036;-68
2023/04/10 04:17:13;;;;;;;23.67;15.57;;;4.20;99.90;;;;;;5023590;28;20032;-68
2023/04/10 04:19:38;;;;;;;22.60;15.60;;;4.20;99.90;;;;;;5015235;28;20022;-68
2023/04/10 04:22:04;;;;;;;23.50;15.68;;;4.20;99.90;;;;;;5021369;28;20029;-68
2023/04/10 04:24:30;;;;;;;23.20;15.52;;;4.20;99.90;;;;;;5020688;28;20063;-67
2023/04/10 04:26:56;;;;;;;22.27;14.75;;;4.20;99.90;;;;;;5012814;28;20410;-68
2023/04/10 04:29:21;;;;;;;23.20;15.68;;;4.20;99.90;;;;;;5014911;28;20120;-67
2023/04/10 04:31:47;;;;;;;22.85;15.50;;;4.20;99.90;;;;;;5018797;28;20105;-68
2023/04/10 04:34:13;;;;;;;24.27;16.40;;;4.20;99.90;;;;;;5010148;28;20037;-68
2023/04/10 04:36:38;;;;;;;23.75;16.05;;;4.20;99.90;;;;;;5013445;28;20064;-68
2023/04/10 04:39:04;;;;;;;22.90;15.73;;;4.20;99.90;;;;;;5014581;28;20057;-68
2023/04/10 04:41:31;;;;;;;22.50;15.48;;;4.50;99.90;;;;;;5016287;28;20030;-68
2023/04/10 04:43:57;;;;;;;22.52;15.57;;;4.20;99.90;;;;;;5025617;28;20041;-68
2023/04/10 04:46:23;;;;;;;20.17;14.00;;;4.20;99.90;;;;;;5012632;28;20029;-68
2023/04/10 04:48:48;;;;;;;22.30;15.13;;;4.30;99.90;;;;;;5012396;28;20037;-68
2023/04/10 04:51:14;;;;;;;20.88;14.50;;;4.30;99.90;;;;;;5014123;28;20029;-68
2023/04/10 04:53:40;;;;;;;21.55;14.60;;;4.20;99.90;;;;;;5018090;28;20107;-68
2023/04/10 04:56:06;;;;;;;23.10;15.80;;;4.30;99.90;;;;;;5011843;28;20394;-68
2023/04/10 04:58:31;;;;;;;25.60;16.65;;;4.40;99.90;;;;;;5018258;28;20100;-68
2023/04/10 05:00:58;;;;;;;24.70;16.48;;;4.00;99.90;;;;;;5028217;28;20045;-68
2023/04/10 05:03:23;;;;;;;22.67;15.50;;;4.30;99.90;;;;;;5012903;28;20029;-68
2023/04/10 05:05:49;;;;;;;22.65;15.45;;;4.40;99.90;;;;;;5009750;28;20032;-68
2023/04/10 05:08:15;;;;;;;23.40;15.20;;;4.40;99.90;;;;;;5020032;28;20118;-68
2023/04/10 05:10:40;;;;;;;23.15;15.40;;;4.20;99.90;;;;;;5014885;28;20036;-68
2023/04/10 05:13:06;;;;;;;25.35;16.58;;;4.40;99.90;;;;;;5015476;28;20030;-68
2023/04/10 05:15:31;;;;;;;22.15;15.60;;;4.40;99.90;;;;;;5021046;28;20036;-68
2023/04/10 05:17:57;;;;;;;25.02;16.52;;;4.40;99.90;;;;;;5025669;28;20032;-68
2023/04/10 05:20:23;;;;;;;23.73;16.00;;;4.40;99.90;;;;;;5020474;28;20034;-68
2023/04/10 05:22:49;;;;;;;22.92;15.65;;;4.40;99.90;;;;;;5013719;28;20045;-68
2023/04/10 05:25:15;;;;;;;23.30;15.52;;;4.50;99.90;;;;;;5013198;28;20069;-68
2023/04/10 05:27:40;;;;;;;24.45;15.93;;;4.50;99.90;;;;;;5010642;28;20057;-68
2023/04/10 05:30:06;;;;;;;24.08;15.77;;;4.50;99.90;;;;;;5021461;28;20537;-68
2023/04/10 05:32:32;;;;;;;21.02;15.00;;;4.50;99.90;;;;;;5011539;28;20029;-68
2023/04/10 05:34:58;;;;;;;24.20;15.70;;;4.60;99.90;;;;;;5011338;28;20742;-68
2023/04/10 05:37:23;;;;;;;23.02;15.77;;;4.60;99.90;;;;;;5021476;28;20118;-68
2023/04/10 05:39:49;;;;;;;24.73;16.13;;;4.60;99.90;;;;;;5018441;28;20075;-68
2023/04/10 05:42:14;;;;;;;27.60;16.90;;;4.70;99.90;;;;;;5016017;28;20036;-68
2023/04/10 05:44:40;;;;;;;23.75;15.90;;;4.80;99.90;;;;;;5016863;28;20077;-68
2023/04/10 05:47:06;;;;;;;22.50;15.52;;;4.80;99.90;;;;;;5007722;28;20037;-68
2023/04/10 05:49:34;;;;;;;22.33;15.18;;;4.90;99.90;;;;;;4406919;28;10001821;-70
2023/04/10 05:51:59;;;;;;;24.48;17.00;;;5.00;99.90;;;;;;5023086;28;20265;-68
2023/04/10 05:54:25;;;;;;;24.88;17.00;;;5.10;99.90;;;;;;5018451;28;20041;-68
2023/04/10 05:56:50;;;;;;;27.90;17.83;;;5.10;99.90;;;;;;5027067;28;20561;-68
2023/04/10 05:59:16;;;;;;;26.38;17.70;;;5.20;99.90;;;;;;5026635;28;20025;-68
2023/04/10 06:01:43;;;;;;;26.90;17.67;;;5.20;99.90;;;;;;5026644;28;20040;-68
2023/04/10 06:04:09;;;;;;;29.73;18.58;;;5.20;99.90;;;;;;5022075;28;20109;-68
2023/04/10 06:06:35;;;;;;;23.33;16.05;;;5.20;99.90;;;;;;5039236;28;20037;-68
2023/04/10 06:09:00;;;;;;;26.75;17.00;;;5.20;99.90;;;;;;5026992;28;20043;-68
2023/04/10 06:11:26;;;;;;;24.75;17.23;;;5.20;99.90;;;;;;5021832;28;20045;-68
2023/04/10 06:13:52;;;;;;;25.05;17.00;;;5.20;99.90;;;;;;5035027;28;20136;-68
2023/04/10 06:16:17;;;;;;;26.00;17.38;;;5.20;99.90;;;;;;5021976;28;20108;-68
2023/04/10 06:18:43;;;;;;;23.40;15.90;;;5.30;99.90;;;;;;5029192;28;20040;-68
2023/04/10 06:21:08;;;;;;;23.30;15.43;;;5.30;99.90;;;;;;5024069;28;20720;-68
2023/04/10 06:23:34;;;;;;;23.83;16.05;;;5.30;99.90;;;;;;5015609;28;20096;-68
2023/04/10 06:26:02;;;;;;;23.38;15.35;;;5.30;99.90;;;;;;5015683;28;20129;-68
2023/04/10 06:28:27;;;;;;;21.90;15.25;;;5.40;99.90;;;;;;5007876;28;20457;-68
2023/04/10 06:30:53;;;;;;;24.73;16.17;;;5.50;99.90;;;;;;5007357;28;20048;-68
2023/04/10 06:33:19;;;;;;;23.27;15.00;;;5.60;99.90;;;;;;5005761;28;20028;-68
2023/04/10 06:35:45;;;;;;;23.60;14.95;;;5.60;99.90;;;;;;5020806;28;20021;-68
2023/04/10 06:38:11;;;;;;;21.20;14.30;;;5.70;99.90;;;;;;5011080;28;20040;-68
2023/04/10 06:40:36;;;;;;;22.55;15.60;;;5.80;99.90;;;;;;5015932;28;20483;-68
2023/04/10 06:43:02;;;;;;;20.10;14.50;;;5.90;99.90;;;;;;5010542;28;20057;-68
2023/04/10 06:45:28;;;;;;;20.65;14.90;;;6.00;99.90;;;;;;5006696;28;20088;-68
2023/04/10 06:47:53;;;;;;;22.60;14.88;;;6.10;99.90;;;;;;5003342;28;20116;-69
2023/04/10 06:50:19;;;;;;;23.92;15.25;;;6.20;99.90;;;;;;5005694;28;20026;-69
2023/04/10 06:52:45;;;;;;;20.92;14.68;;;6.40;99.90;;;;;;5007912;28;20056;-69
2023/04/10 06:55:14;;;;;;;21.58;15.27;;;6.50;99.90;;;;;;5008473;28;20029;-71
2023/04/10 06:57:39;;;;;;;22.20;15.32;;;6.70;99.90;;;;;;5009170;28;20270;-71
2023/04/10 07:00:06;;;;;;;22.65;14.93;;;7.00;99.90;;;;;;5006007;28;20065;-72
2023/04/10 07:02:31;;;;;;;21.55;14.93;;;7.20;99.90;;;;;;5007485;28;20030;-71
2023/04/10 07:04:57;;;;;;;22.65;15.50;;;7.40;99.90;;;;;;5008111;28;20025;-71
2023/04/10 07:07:23;;;;;;;22.13;15.80;;;7.80;99.90;;;;;;5014122;28;20055;-71
2023/04/10 07:09:48;;;;;;;23.98;16.13;;;8.10;99.90;;;;;;5015574;28;20021;-72
2023/04/10 07:12:15;;;;;;;22.10;15.20;;;8.40;99.90;;;;;;5002716;28;20128;-71
2023/04/10 07:14:41;;;;;;;21.67;15.85;;;8.70;99.90;;;;;;5000746;28;20419;-70
2023/04/10 07:17:07;;;;;;;23.35;16.77;;;8.80;99.90;;;;;;5008794;28;20040;-69
2023/04/10 07:19:32;;;;;;;21.30;16.00;;;8.90;99.90;;;;;;5006762;28;20448;-70
2023/04/10 07:21:58;;;;;;;21.45;15.63;;;9.00;99.90;;;;;;5014249;28;20117;-71
2023/04/10 07:24:24;;;;;;;20.58;15.35;;;9.10;99.90;;;;;;5009958;28;20145;-71
2023/04/10 07:26:49;;;;;;;22.88;16.00;;;9.20;99.90;;;;;;4996229;28;20073;-71
2023/04/10 07:29:15;;;;;;;20.55;15.40;;;9.30;99.90;;;;;;5009615;28;23669;-69
2023/04/10 07:31:41;;;;;;;23.17;15.65;;;9.30;99.90;;;;;;5008799;28;20125;-69
2023/04/10 07:34:07;;;;;;;20.42;14.82;;;9.40;99.90;;;;;;5009643;28;20044;-69
2023/04/10 07:36:32;;;;;;;21.02;15.20;;;9.40;99.90;;;;;;5011102;28;20034;-70
2023/04/10 07:38:58;;;;;;;21.10;15.23;;;9.50;99.90;;;;;;5005501;28;20103;-70
2023/04/10 07:41:24;;;;;;;20.10;14.93;;;9.60;99.90;;;;;;5009193;28;20057;-70
2023/04/10 07:43:49;;;;;;;23.63;15.38;;;9.60;99.90;;;;;;5011623;28;20061;-70
2023/04/10 07:46:16;;;;;;;21.13;15.63;;;9.70;99.90;;;;;;5008274;28;20092;-70
2023/04/10 07:48:43;;;;;;;21.27;15.40;;;9.70;99.90;;;;;;5007276;28;20026;-70
2023/04/10 07:51:08;;;;;;;21.95;15.80;;;9.80;99.90;;;;;;5004373;28;20065;-69
2023/04/10 07:53:35;;;;;;;20.92;15.63;;;;;;;;;;5008146;28;20042;-70
2023/04/10 07:56:01;;;;;;;20.33;15.25;;;;;;;;;;5017314;28;20044;-70
2023/04/10 07:58:27;;;;;;;22.10;15.90;;;10.30;99.90;;;;;;5008603;28;20072;-71
2023/04/10 08:00:53;;;;;;;19.58;14.75;;;10.20;99.90;;;;;;5017173;28;20061;-71
2023/04/10 08:03:18;;;;;;;20.30;15.38;;;10.30;99.90;;;;;;5011846;28;20037;-71
2023/04/10 08:05:44;;;;;;;18.33;15.02;;;10.50;99.90;;;;;;5010969;28;20501;-72
2023/04/10 08:08:10;;;;;;;19.60;13.75;;;10.60;99.90;;;;;;5008063;28;20053;-71
2023/04/10 08:10:37;;;;;;;18.40;13.48;;;10.80;99.90;;;;;;5018890;28;20583;-72
2023/04/10 08:13:03;;;;;;;17.15;13.35;;;11.00;99.90;;;;;;5019664;28;20486;-71
2023/04/10 08:15:28;;;;;;;16.98;12.65;;;11.10;99.90;;;;;;5012965;28;20037;-71
2023/04/10 08:17:54;;;;;;;16.80;12.43;;;11.30;99.90;;;;;;5015175;28;20040;-71
2023/04/10 08:20:20;;;;;;;18.30;13.95;;;11.50;99.90;;;;;;5021175;28;20045;-71
2023/04/10 08:22:45;;;;;;;17.00;13.13;;;11.70;99.90;;;;;;5012295;28;20034;-71
2023/04/10 08:25:11;;;;;;;17.63;13.50;;;11.90;99.90;;;;;;5018995;28;20557;-72
2023/04/10 08:27:37;;;;;;;18.33;13.35;;;12.00;99.90;;;;;;5010053;28;20561;-71
2023/04/10 08:30:03;;;;;;;17.50;13.32;;;12.10;99.90;;;;;;5017101;28;20557;-71
2023/04/10 08:32:29;;;;;;;16.88;13.73;;;12.20;99.90;;;;;;5009263;28;20021;-71
2023/04/10 08:34:55;;;;;;;16.48;13.13;;;12.20;99.90;;;;;;4997552;28;20520;-72
2023/04/10 08:37:20;;;;;;;16.95;13.18;;;12.30;99.90;;;;;;5013366;28;20038;-70
2023/04/10 08:39:46;;;;;;;17.02;13.25;;;12.40;99.90;;;;;;5016806;28;20623;-70
2023/04/10 08:42:12;;;;;;;18.30;14.63;;;12.50;99.90;;;;;;5012103;28;20049;-71
2023/04/10 08:44:38;;;;;;;18.65;14.85;;;12.60;99.90;;;;;;5009296;28;20064;-71
2023/04/10 08:47:05;;;;;;;18.67;14.80;;;12.70;99.90;;;;;;4667743;28;10000400;-72
2023/04/10 08:49:34;;;;;;;19.50;15.00;;;12.80;99.90;;;;;;5013537;28;20029;-72
2023/04/10 08:52:03;;;;;;;17.13;13.57;;;12.80;99.90;;;;;;5012959;28;20037;-71
2023/04/10 08:54:31;;;;;;;18.73;14.32;;;12.90;99.90;;;;;;5016712;28;20025;-72
2023/04/10 08:56:59;;;;;;;18.42;14.25;;;12.90;99.90;;;;;;5011804;28;20053;-71
2023/04/10 08:59:28;;;;;;;18.65;14.07;;;13.00;99.90;;;;;;5014672;28;20042;-71
2023/04/10 09:01:55;;;;;;;17.05;13.65;;;13.00;99.90;;;;;;5014022;28;20041;-71
2023/04/10 09:04:21;;;;;;;18.85;14.02;;;13.10;99.90;;;;;;5011936;28;20623;-72
2023/04/10 09:06:46;;;;;;;17.80;14.00;;;13.10;99.90;;;;;;5011852;28;20040;-72
2023/04/10 09:09:12;;;;;;;17.65;13.23;;;13.20;99.90;;;;;;5013092;28;20025;-71
2023/04/10 09:11:55;;;;;;;18.70;13.07;;;13.30;99.90;;;;;;5008087;28;20060;-72
2023/04/10 09:14:22;;;;;;;18.65;13.77;;;13.50;99.90;;;;;;4663767;28;10000602;-71
2023/04/10 09:16:50;;;;;;;17.83;14.10;;;13.60;99.90;;;;;;5005679;28;20037;-70
2023/04/10 09:19:32;;;;;;;19.55;15.15;;;13.60;99.90;;;;;;5009959;28;20486;-70
2023/04/10 09:21:58;;;;;;;17.83;14.10;;;13.60;99.90;;;;;;5014173;28;20025;-70
2023/04/10 09:24:24;;;;;;;16.50;13.70;;;;;;;;;;5011567;28;20751;-71
2023/04/10 09:26:50;;;;;;;17.58;13.73;;;13.80;99.90;;;;;;5007473;28;20058;-71
2023/04/10 09:29:16;;;;;;;15.85;13.20;;;13.90;99.90;;;;;;5004130;28;20054;-71
2023/04/10 09:31:44;;;;;;;17.25;13.85;;;13.90;99.90;;;;;;5008111;28;20041;-71
2023/04/10 09:34:11;;;;;;;16.27;13.95;;;14.00;99.90;;;;;;5003629;28;20478;-71
2023/04/10 09:36:39;;;;;;;16.83;13.65;;;14.20;99.90;;;;;;5005255;28;20026;-71
2023/04/10 09:39:06;;;;;;;16.30;13.32;;;14.30;99.90;;;;;;5013900;28;20113;-71
2023/04/10 09:41:31;;;;;;;17.42;13.55;;;14.40;99.90;;;;;;5012920;28;21822;-71
2023/04/10 09:44:10;;;;;;;18.17;13.63;;;14.50;99.90;;;;;;5012283;28;20037;-71
2023/04/10 09:46:36;;;;;;;13.52;11.35;;;;;;;;;;5015825;28;20041;-71
2023/04/10 09:49:06;;;;;;;23.25;14.07;;;14.70;99.90;;;;;;5011980;28;20382;-72
2023/04/10 09:51:34;;;;;;;13.70;11.00;;;14.70;99.90;;;;;;5018016;28;20038;-69
2023/04/10 09:54:01;;;;;;;13.20;11.07;;;14.80;99.90;;;;;;5010964;28;20061;-69
2023/04/10 09:56:28;;;;;;;14.93;10.85;;;14.90;99.90;;;;;;5011346;28;20033;-69
2023/04/10 09:58:57;;;;;;;11.38;9.70;;;15.00;99.90;;;;;;5011872;28;20659;-69
2023/04/10 10:01:25;;;;;;;12.05;9.95;;;15.10;99.90;;;;;;5011969;28;20125;-68
2023/04/10 10:03:53;;;;;;;12.57;10.40;;;15.20;99.90;;;;;;5006151;28;20548;-68
2023/04/10 10:06:19;;;;;;;11.50;9.02;;;15.30;99.90;;;;;;5011302;28;20033;-69
2023/04/10 10:08:45;;;;;;;12.15;9.63;;;15.30;99.90;;;;;;5010349;28;20042;-69
2023/04/10 10:11:14;;;;;;;11.80;9.77;;;15.30;99.90;;;;;;5013349;28;20057;-69
2023/04/10 10:13:51;;;;;;;12.68;9.70;;;15.30;99.90;;;;;;5014325;28;20032;-69
2023/04/10 10:16:24;;;;;;;12.27;9.65;;;15.40;99.90;;;;;;5008879;28;20037;-69
2023/04/10 10:19:10;;;;;;;11.35;9.32;;;15.40;99.90;;;;;;5021516;28;20035;-69
2023/04/10 10:21:36;;;;;;;11.60;9.75;;;15.50;99.90;;;;;;5015131;28;20084;-68
2023/04/10 10:24:07;;;;;;;12.02;9.65;;;15.70;99.90;;;;;;5017621;28;20037;-69
2023/04/10 10:26:34;;;;;;;11.60;9.48;;;15.80;99.90;;;;;;5009635;28;20092;-69
2023/04/10 10:29:05;;;;;;;12.07;9.05;;;15.80;99.90;;;;;;5016255;28;20033;-69
2023/04/10 10:31:32;;;;;;;11.05;8.60;;;16.00;99.90;;;;;;5014903;28;20386;-69
2023/04/10 10:34:03;;;;;;;11.20;9.15;;;16.10;99.80;;;;;;5011967;28;20052;-69
2023/04/10 10:36:33;;;;;;;10.88;8.60;;;16.10;99.60;;;;;;5017081;28;20119;-69
2023/04/10 10:39:33;;;;;;;10.98;8.50;;;16.20;98.90;;;;;;5016800;28;20646;-70
2023/04/10 10:42:10;;;;;;;13.10;7.97;;;16.30;98.40;;;;;;5014337;28;20030;-70
2023/04/10 10:44:56;;;;;;;10.45;8.23;;;16.30;96.30;;;;;;5018686;28;20691;-69
2023/04/10 10:47:26;;;;;;;10.80;8.98;;;16.30;96.50;;;;;;5020524;28;20060;-67
2023/04/10 10:50:01;;;;;;;9.63;8.00;;;16.40;97.50;;;;;;5013877;28;20033;-69
2023/04/10 10:52:36;;;;;;;8.60;7.45;;;16.40;95.70;;;;;;5013073;28;20080;-69
2023/04/10 10:55:20;;;;;;;8.02;7.20;;;16.50;95.70;;;;;;5013689;28;20014;-70
2023/04/10 10:57:50;;;;;;;9.88;8.07;;;16.50;94.80;;;;;;5008860;28;20017;-71
2023/04/10 11:00:16;;;;;;;8.40;7.30;;;16.60;97.10;;;;;;5014490;28;20440;-71
2023/04/10 11:02:42;;;;;;;15.65;11.05;;;;;;;;;;5011767;28;20026;-71
2023/04/10 11:05:08;;;;;;;9.63;8.15;;;16.50;94.40;;;;;;5020563;28;20038;-71
2023/04/10 11:08:11;;;;;;;9.48;7.72;;;16.50;94.70;;;;;;5019891;28;20486;-71
2023/04/10 11:11:08;;;;;;;9.68;7.10;;;16.60;93.70;;;;;;5010608;28;20470;-71
2023/04/10 11:13:57;;;;;;;7.05;6.35;;;;;;;;;;5014896;28;20470;-71
2023/04/10 11:16:42;;;;;;;8.07;6.30;;;16.90;99.90;;;;;;5001381;28;20048;-70
2023/04/10 11:19:11;;;;;;;8.30;6.72;;;16.90;92.20;;;;;;5008481;28;20037;-70
2023/04/10 11:22:03;;;;;;;7.25;6.20;;;17.00;92.10;;;;;;5015084;28;20030;-70
2023/04/10 11:24:30;;;;;;;8.25;6.90;;;;;;;;;;5011811;28;20037;-71
2023/04/10 11:26:56;;;;;;;8.30;6.82;;;16.90;90.80;;;;;;5020392;28;20038;-70
2023/04/10 11:29:27;;;;;;;6.93;5.90;;;16.90;91.30;;;;;;5016093;28;20091;-70
2023/04/10 11:31:58;;;;;;;6.85;6.05;;;16.90;90.50;;;;;;5009913;28;20092;-71
2023/04/10 11:34:26;;;;;;;5.93;5.13;;;17.00;91.30;;;;;;5026687;28;20470;-70
2023/04/10 11:36:52;;;;;;;6.32;5.40;;;17.00;89.90;;;;;;5018065;28;20021;-70
2023/04/10 11:39:19;;;;;;;7.05;4.90;;;17.00;90.50;;;;;;5020681;28;20497;-71
2023/04/10 11:41:51;;;;;;;9.18;5.20;;;17.10;89.50;;;;;;5020766;28;20025;-70
2023/04/10 11:44:30;;;;;;;6.93;4.43;;;17.10;87.20;;;;;;5014459;28;20036;-70
2023/04/10 11:46:56;;;;;;;6.05;4.65;;;17.20;86.60;;;;;;5016786;28;20049;-70
2023/04/10 11:49:25;;;;;;;5.88;3.72;;;17.20;85.10;;;;;;5016585;28;20034;-70
2023/04/10 11:51:51;;;;;;;7.15;4.25;;;17.30;84.80;;;;;;5023427;28;20026;-71
2023/04/10 11:54:22;;;;;;;4.40;3.30;;;17.40;83.70;;;;;;5025706;28;20025;-71
2023/04/10 11:57:01;;;;;;;5.85;3.42;;;17.50;82.40;;;;;;5021031;28;20034;-71
2023/04/10 11:59:28;;;;;;;4.90;3.47;;;17.60;81.70;;;;;;5024015;28;20099;-71
2023/04/10 12:02:06;;;;;;;3.22;2.85;;;17.70;82.90;;;;;;5025122;28;20030;-71
2023/04/10 12:04:32;;;;;;;3.38;3.08;;;17.70;79.00;;;;;;5022416;28;20072;-71
2023/04/10 12:06:58;;;;;;;3.40;3.10;;;17.80;87.80;;;;;;5024202;28;20033;-71
2023/04/10 12:09:23;;;;;;;3.30;3.00;;;17.70;87.00;;;;;;5012961;28;20061;-71
2023/04/10 12:12:03;;;;;;;3.03;2.72;;;17.70;87.20;;;;;;5019621;28;20266;-71
2023/04/10 12:14:32;;;;;;;4.03;3.10;;;17.70;86.90;;;;;;5014897;28;20034;-71
2023/04/10 12:16:58;;;;;;;3.40;2.90;;;17.80;88.10;;;;;;5015234;28;20053;-71
2023/04/10 12:19:25;;;;;;;4.70;2.92;;;17.80;87.80;;;;;;5012357;28;20088;-71
2023/04/10 12:21:51;;;;;;;4.57;3.10;;;17.70;85.60;;;;;;5006858;28;20057;-69
2023/04/10 12:24:43;;;;;;;3.25;2.95;;;17.70;92.50;;;;;;5014041;28;20067;-70
2023/04/10 12:27:15;;;;;;;4.45;3.05;;;17.70;94.20;;;;;;5014691;28;20049;-70
2023/04/10 12:29:41;;;;;;;4.07;3.10;;;;;;;;;;5010131;28;20056;-69
2023/04/10 12:32:08;;;;;;;3.30;3.00;;;17.70;84.30;;;;;;5012250;28;20041;-68
2023/04/10 12:34:35;;;;;;;4.70;3.00;;;17.70;85.00;;;;;;5011067;28;20044;-69
2023/04/10 12:37:01;;;;;;;4.57;3.15;;;;;;;;;;5017685;28;20026;-68
2023/04/10 12:39:28;;;;;;;3.50;3.20;;;17.60;78.20;;;;;;5003885;28;20495;-69
2023/04/10 12:42:10;;;;;;;4.70;3.00;;;17.50;76.30;;;;;;5010940;28;20160;-69
2023/04/10 12:44:49;;;;;;;3.42;3.13;;;17.40;78.30;;;;;;5015798;28;20107;-69